sensor_id;sensor_type;location;lat;lon;timestamp;pressure;altitude;pressure_sealevel;temperature;humidity
19553;BME280;9420;50.876;7.012;2023-01-28T00:01:04;102290.03;;;11.56;84.39
19553;BME280;9420;50.876;7.012;2023-01-28T00:03:32;102282.09;;;11.59;84.30
19553;BME280;9420;50.876;7.012;2023-01-28T00:06:06;102291.19;;;11.22;84.86
19553;BME280;9420;50.876;7.012;2023-01-28T00:08:33;102284.03;;;11.36;84.59
19553;BME280;9420;50.876;7.012;2023-01-28T00:11:05;102283.91;;;11.51;84.18
19553;BME280;9420;50.876;7.012;2023-01-28T00:13:33;102287.63;;;11.26;84.93
19553;BME280;9420;50.876;7.012;2023-01-28T00:16:04;102276.78;;;11.62;83.72
19553;BME280;9420;50.876;7.012;2023-01-28T00:18:33;102272.78;;;11.12;84.76
19553;BME280;9420;50.876;7.012;2023-01-28T00:21:04;102279.00;;;11.02;84.85
19553;BME280;9420;50.876;7.012;2023-01-28T00:23:35;102283.63;;;10.63;86.08
19553;BME280;9420;50.876;7.012;2023-01-28T00:26:05;102275.56;;;10.94;86.03
19553;BME280;9420;50.876;7.012;2023-01-28T00:28:32;102275.59;;;10.85;85.51
19553;BME280;9420;50.876;7.012;2023-01-28T00:31:06;102281.84;;;10.74;85.75
19553;BME280;9420;50.876;7.012;2023-01-28T00:33:34;102280.06;;;10.73;85.53
19553;BME280;9420;50.876;7.012;2023-01-28T00:36:05;102277.56;;;10.50;87.20
19553;BME280;9420;50.876;7.012;2023-01-28T00:38:33;102277.44;;;10.74;86.10
19553;BME280;9420;50.876;7.012;2023-01-28T00:41:07;102270.56;;;10.49;86.62
19553;BME280;9420;50.876;7.012;2023-01-28T00:43:35;102275.91;;;10.25;88.46
19553;BME280;9420;50.876;7.012;2023-01-28T00:46:03;102277.66;;;10.23;88.64
19553;BME280;9420;50.876;7.012;2023-01-28T00:48:31;102284.56;;;10.57;87.82
19553;BME280;9420;50.876;7.012;2023-01-28T00:50:58;102285.41;;;10.56;87.78
19553;BME280;9420;50.876;7.012;2023-01-28T00:53:27;102286.44;;;10.10;89.49
19553;BME280;9420;50.876;7.012;2023-01-28T00:55:54;102283.81;;;10.20;90.44
19553;BME280;9420;50.876;7.012;2023-01-28T00:58:22;102289.06;;;10.32;90.06
19553;BME280;9420;50.876;7.012;2023-01-28T01:00:49;102289.97;;;10.15;91.66
19553;BME280;9420;50.876;7.012;2023-01-28T01:03:17;102288.19;;;10.23;90.62
19553;BME280;9420;50.876;7.012;2023-01-28T01:05:44;102277.69;;;10.20;90.43
19553;BME280;9420;50.876;7.012;2023-01-28T01:08:12;102279.47;;;9.97;90.89
19553;BME280;9420;50.876;7.012;2023-01-28T01:10:40;102277.75;;;9.72;92.22
19553;BME280;9420;50.876;7.012;2023-01-28T01:13:08;102275.94;;;10.22;91.35
19553;BME280;9420;50.876;7.012;2023-01-28T01:15:35;102266.28;;;10.12;90.65
19553;BME280;9420;50.876;7.012;2023-01-28T01:18:02;102274.22;;;9.97;90.93
19553;BME280;9420;50.876;7.012;2023-01-28T01:20:29;102265.38;;;10.16;91.14
19553;BME280;9420;50.876;7.012;2023-01-28T01:22:58;102272.41;;;10.08;91.25
19553;BME280;9420;50.876;7.012;2023-01-28T01:25:25;102275.91;;;10.10;92.08
19553;BME280;9420;50.876;7.012;2023-01-28T01:27:54;102278.50;;;10.26;90.23
19553;BME280;9420;50.876;7.012;2023-01-28T01:30:21;102276.75;;;10.28;90.01
19553;BME280;9420;50.876;7.012;2023-01-28T01:32:48;102282.97;;;10.11;91.05
19553;BME280;9420;50.876;7.012;2023-01-28T01:35:15;102290.91;;;9.79;92.28
19553;BME280;9420;50.876;7.012;2023-01-28T01:37:43;102298.75;;;9.99;92.24
19553;BME280;9420;50.876;7.012;2023-01-28T01:40:11;102282.94;;;10.23;91.49
19553;BME280;9420;50.876;7.012;2023-01-28T01:42:38;102285.63;;;9.94;91.25
19553;BME280;9420;50.876;7.012;2023-01-28T01:45:11;102290.81;;;10.08;91.61
19553;BME280;9420;50.876;7.012;2023-01-28T01:47:45;102283.81;;;9.99;91.99
19553;BME280;9420;50.876;7.012;2023-01-28T01:50:23;102272.50;;;9.78;91.36
19553;BME280;9420;50.876;7.012;2023-01-28T01:52:56;102282.94;;;10.08;91.74
19553;BME280;9420;50.876;7.012;2023-01-28T01:55:30;102277.72;;;9.99;91.94
19553;BME280;9420;50.876;7.012;2023-01-28T01:58:01;102290.88;;;9.70;93.15
19553;BME280;9420;50.876;7.012;2023-01-28T02:00:30;102298.78;;;9.69;92.43
19553;BME280;9420;50.876;7.012;2023-01-28T02:02:57;102293.53;;;9.78;92.40
19553;BME280;9420;50.876;7.012;2023-01-28T02:05:25;102302.31;;;9.71;92.87
19553;BME280;9420;50.876;7.012;2023-01-28T02:07:56;102305.81;;;9.76;92.81
19553;BME280;9420;50.876;7.012;2023-01-28T02:10:47;102304.94;;;9.60;92.84
19553;BME280;9420;50.876;7.012;2023-01-28T02:13:17;102297.03;;;9.86;91.79
19553;BME280;9420;50.876;7.012;2023-01-28T02:15:47;102308.44;;;9.68;91.29
19553;BME280;9420;50.876;7.012;2023-01-28T02:18:15;102297.91;;;9.76;91.81
19553;BME280;9420;50.876;7.012;2023-01-28T02:21:10;102297.91;;;9.53;92.33
19553;BME280;9420;50.876;7.012;2023-01-28T02:24:09;102302.22;;;8.77;97.23
19553;BME280;9420;50.876;7.012;2023-01-28T02:27:14;102300.47;;;8.91;97.59
19553;BME280;9420;50.876;7.012;2023-01-28T02:29:54;102298.66;;;8.60;100.00
19553;BME280;9420;50.876;7.012;2023-01-28T02:32:29;102297.88;;;9.00;98.70
19553;BME280;9420;50.876;7.012;2023-01-28T02:35:06;102298.81;;;9.47;96.33
19553;BME280;9420;50.876;7.012;2023-01-28T02:37:46;102298.78;;;9.26;95.95
19553;BME280;9420;50.876;7.012;2023-01-28T02:40:22;102308.25;;;8.56;99.15
19553;BME280;9420;50.876;7.012;2023-01-28T02:42:52;102312.81;;;9.19;97.68
19553;BME280;9420;50.876;7.012;2023-01-28T02:45:24;102314.56;;;9.29;96.83
19553;BME280;9420;50.876;7.012;2023-01-28T02:48:12;102318.94;;;9.51;95.55
19553;BME280;9420;50.876;7.012;2023-01-28T02:50:47;102311.06;;;9.32;95.84
19553;BME280;9420;50.876;7.012;2023-01-28T02:53:23;102314.59;;;9.44;95.77
19553;BME280;9420;50.876;7.012;2023-01-28T02:56:19;102315.47;;;9.42;95.96
19553;BME280;9420;50.876;7.012;2023-01-28T02:59:00;102319.81;;;9.26;96.08
19553;BME280;9420;50.876;7.012;2023-01-28T03:01:55;102330.34;;;9.28;96.16
19553;BME280;9420;50.876;7.012;2023-01-28T03:04:31;102332.88;;;8.93;97.13
19553;BME280;9420;50.876;7.012;2023-01-28T03:07:04;102332.88;;;8.93;99.19
19553;BME280;9420;50.876;7.012;2023-01-28T03:09:34;102341.69;;;9.09;98.90
19553;BME280;9420;50.876;7.012;2023-01-28T03:12:06;102340.78;;;8.96;98.40
19553;BME280;9420;50.876;7.012;2023-01-28T03:14:56;102349.41;;;8.62;99.38
19553;BME280;9420;50.876;7.012;2023-01-28T03:17:46;102341.66;;;8.94;100.00
19553;BME280;9420;50.876;7.012;2023-01-28T03:20:38;102344.28;;;8.98;99.87
19553;BME280;9420;50.876;7.012;2023-01-28T03:23:30;102342.53;;;8.97;100.00
19553;BME280;9420;50.876;7.012;2023-01-28T03:26:21;102339.03;;;8.98;99.79
19553;BME280;9420;50.876;7.012;2023-01-28T03:29:11;102344.06;;;8.39;100.00
19553;BME280;9420;50.876;7.012;2023-01-28T03:31:59;102350.25;;;8.52;100.00
19553;BME280;9420;50.876;7.012;2023-01-28T03:34:46;102345.94;;;8.69;100.00
19553;BME280;9420;50.876;7.012;2023-01-28T03:37:32;102349.34;;;8.44;100.00
19553;BME280;9420;50.876;7.012;2023-01-28T03:40:05;102348.47;;;8.48;100.00
19553;BME280;9420;50.876;7.012;2023-01-28T03:42:33;102351.28;;;8.99;100.00
19553;BME280;9420;50.876;7.012;2023-01-28T03:45:01;102352.94;;;8.67;100.00
19553;BME280;9420;50.876;7.012;2023-01-28T03:47:32;102352.19;;;9.04;100.00
19553;BME280;9420;50.876;7.012;2023-01-28T03:50:01;102354.50;;;8.29;100.00
19553;BME280;9420;50.876;7.012;2023-01-28T03:52:32;102349.25;;;8.29;100.00
19553;BME280;9420;50.876;7.012;2023-01-28T03:54:59;102350.31;;;8.68;100.00
19553;BME280;9420;50.876;7.012;2023-01-28T03:57:28;102354.59;;;8.47;100.00
19553;BME280;9420;50.876;7.012;2023-01-28T03:59:56;102361.72;;;8.75;100.00
19553;BME280;9420;50.876;7.012;2023-01-28T04:02:23;102365.91;;;8.38;100.00
19553;BME280;9420;50.876;7.012;2023-01-28T04:04:51;102358.22;;;8.76;100.00
19553;BME280;9420;50.876;7.012;2023-01-28T04:07:20;102372.28;;;8.87;100.00
19553;BME280;9420;50.876;7.012;2023-01-28T04:09:47;102370.69;;;9.58;99.22
19553;BME280;9420;50.876;7.012;2023-01-28T04:12:14;102379.44;;;9.63;97.77
19553;BME280;9420;50.876;7.012;2023-01-28T04:14:43;102374.13;;;9.36;97.94
19553;BME280;9420;50.876;7.012;2023-01-28T04:17:10;102374.19;;;9.60;98.44
19553;BME280;9420;50.876;7.012;2023-01-28T04:19:37;102373.28;;;9.39;97.58
19553;BME280;9420;50.876;7.012;2023-01-28T04:22:08;102372.44;;;9.90;96.06
19553;BME280;9420;50.876;7.012;2023-01-28T04:24:37;102375.06;;;9.94;94.72
19553;BME280;9420;50.876;7.012;2023-01-28T04:27:04;102379.44;;;9.73;95.17
19553;BME280;9420;50.876;7.012;2023-01-28T04:29:31;102374.19;;;9.54;95.27
19553;BME280;9420;50.876;7.012;2023-01-28T04:31:58;102375.94;;;9.77;93.81
19553;BME280;9420;50.876;7.012;2023-01-28T04:34:25;102382.94;;;9.56;94.29
19553;BME280;9420;50.876;7.012;2023-01-28T04:36:52;102382.06;;;9.44;94.78
19553;BME280;9420;50.876;7.012;2023-01-28T04:39:19;102380.31;;;9.53;94.53
19553;BME280;9420;50.876;7.012;2023-01-28T04:41:47;102375.94;;;9.71;92.90
19553;BME280;9420;50.876;7.012;2023-01-28T04:44:14;102384.72;;;9.79;92.80
19553;BME280;9420;50.876;7.012;2023-01-28T04:46:41;102389.97;;;9.88;92.56
19553;BME280;9420;50.876;7.012;2023-01-28T04:49:08;102394.34;;;9.81;92.32
19553;BME280;9420;50.876;7.012;2023-01-28T04:51:35;102402.19;;;9.25;94.75
19553;BME280;9420;50.876;7.012;2023-01-28T04:54:03;102398.63;;;9.14;95.72
19553;BME280;9420;50.876;7.012;2023-01-28T04:56:30;102402.16;;;9.19;96.02
19553;BME280;9420;50.876;7.012;2023-01-28T04:58:58;102392.53;;;9.27;95.11
19553;BME280;9420;50.876;7.012;2023-01-28T05:01:25;102400.44;;;9.33;94.72
19553;BME280;9420;50.876;7.012;2023-01-28T05:03:52;102398.66;;;9.22;94.12
19553;BME280;9420;50.876;7.012;2023-01-28T05:06:20;102401.31;;;9.23;94.14
19553;BME280;9420;50.876;7.012;2023-01-28T05:08:47;102396.09;;;9.50;92.84
19553;BME280;9420;50.876;7.012;2023-01-28T05:11:14;102402.19;;;9.34;92.12
19553;BME280;9420;50.876;7.012;2023-01-28T05:13:41;102398.72;;;9.47;92.36
19553;BME280;9420;50.876;7.012;2023-01-28T05:16:09;102396.97;;;9.65;91.23
19553;BME280;9420;50.876;7.012;2023-01-28T05:18:36;102400.41;;;9.21;90.98
19553;BME280;9420;50.876;7.012;2023-01-28T05:21:04;102401.25;;;9.08;92.76
19553;BME280;9420;50.876;7.012;2023-01-28T05:23:31;102404.81;;;9.25;92.18
19553;BME280;9420;50.876;7.012;2023-01-28T05:25:58;102399.56;;;9.45;90.57
19553;BME280;9420;50.876;7.012;2023-01-28T05:28:25;102395.19;;;9.33;89.97
19553;BME280;9420;50.876;7.012;2023-01-28T05:30:53;102398.59;;;9.05;91.58
19553;BME280;9420;50.876;7.012;2023-01-28T05:33:22;102396.91;;;9.19;90.36
19553;BME280;9420;50.876;7.012;2023-01-28T05:35:49;102403.97;;;9.44;90.89
19553;BME280;9420;50.876;7.012;2023-01-28T05:38:16;102403.88;;;9.08;89.60
19553;BME280;9420;50.876;7.012;2023-01-28T05:40:43;102401.28;;;9.20;88.96
19553;BME280;9420;50.876;7.012;2023-01-28T05:43:10;102410.94;;;9.24;89.27
19553;BME280;9420;50.876;7.012;2023-01-28T05:45:37;102407.44;;;9.19;90.57
19553;BME280;9420;50.876;7.012;2023-01-28T05:48:05;102402.19;;;9.34;89.09
19553;BME280;9420;50.876;7.012;2023-01-28T05:50:33;102410.09;;;9.43;88.95
19553;BME280;9420;50.876;7.012;2023-01-28T05:53:00;102408.38;;;9.62;88.76
19553;BME280;9420;50.876;7.012;2023-01-28T05:55:27;102411.00;;;9.54;88.62
19553;BME280;9420;50.876;7.012;2023-01-28T05:57:54;102415.31;;;9.25;87.70
19553;BME280;9420;50.876;7.012;2023-01-28T06:00:21;102415.38;;;9.61;87.87
19553;BME280;9420;50.876;7.012;2023-01-28T06:02:50;102421.53;;;9.54;86.74
19553;BME280;9420;50.876;7.012;2023-01-28T06:05:17;102425.91;;;9.57;87.68
19553;BME280;9420;50.876;7.012;2023-01-28T06:07:46;102423.25;;;9.43;87.70
19553;BME280;9420;50.876;7.012;2023-01-28T06:10:14;102432.91;;;9.56;87.11
19553;BME280;9420;50.876;7.012;2023-01-28T06:12:42;102426.81;;;9.77;86.47
19553;BME280;9420;50.876;7.012;2023-01-28T06:15:10;102424.16;;;9.71;85.99
19553;BME280;9420;50.876;7.012;2023-01-28T06:17:38;102425.94;;;9.80;84.91
19553;BME280;9420;50.876;7.012;2023-01-28T06:20:07;102429.41;;;9.62;86.09
19553;BME280;9420;50.876;7.012;2023-01-28T06:22:34;102433.69;;;9.22;86.51
19553;BME280;9420;50.876;7.012;2023-01-28T06:25:03;102428.50;;;9.40;85.65
19553;BME280;9420;50.876;7.012;2023-01-28T06:27:30;102430.28;;;9.55;85.01
19553;BME280;9420;50.876;7.012;2023-01-28T06:29:57;102431.16;;;9.61;84.86
19553;BME280;9420;50.876;7.012;2023-01-28T06:32:25;102435.50;;;9.35;83.65
19553;BME280;9420;50.876;7.012;2023-01-28T06:34:53;102439.97;;;9.70;84.50
19553;BME280;9420;50.876;7.012;2023-01-28T06:37:20;102442.56;;;9.67;83.74
19553;BME280;9420;50.876;7.012;2023-01-28T06:39:47;102435.59;;;9.90;82.67
19553;BME280;9420;50.876;7.012;2023-01-28T06:42:15;102443.44;;;9.55;83.73
19553;BME280;9420;50.876;7.012;2023-01-28T06:44:42;102444.31;;;9.58;84.72
19553;BME280;9420;50.876;7.012;2023-01-28T06:47:09;102447.84;;;9.91;84.67
19553;BME280;9420;50.876;7.012;2023-01-28T06:49:36;102442.59;;;9.91;83.74
19553;BME280;9420;50.876;7.012;2023-01-28T06:52:03;102435.59;;;9.96;82.33
19553;BME280;9420;50.876;7.012;2023-01-28T06:54:31;102441.69;;;9.66;83.41
19553;BME280;9420;50.876;7.012;2023-01-28T06:56:59;102434.69;;;9.85;82.96
19553;BME280;9420;50.876;7.012;2023-01-28T06:59:30;102437.34;;;10.03;83.13
19553;BME280;9420;50.876;7.012;2023-01-28T07:01:57;102441.69;;;9.83;84.43
19553;BME280;9420;50.876;7.012;2023-01-28T07:04:24;102438.22;;;10.00;83.94
19553;BME280;9420;50.876;7.012;2023-01-28T07:06:51;102446.13;;;9.99;82.88
19553;BME280;9420;50.876;7.012;2023-01-28T07:09:18;102442.56;;;9.85;83.65
19553;BME280;9420;50.876;7.012;2023-01-28T07:11:45;102440.84;;;9.90;83.52
19553;BME280;9420;50.876;7.012;2023-01-28T07:14:12;102449.63;;;9.86;84.79
19553;BME280;9420;50.876;7.012;2023-01-28T07:16:40;102450.47;;;9.74;83.21
19553;BME280;9420;50.876;7.012;2023-01-28T07:19:07;102451.34;;;9.75;82.75
19553;BME280;9420;50.876;7.012;2023-01-28T07:21:34;102453.13;;;9.76;83.08
19553;BME280;9420;50.876;7.012;2023-01-28T07:24:01;102447.84;;;9.83;83.94
19553;BME280;9420;50.876;7.012;2023-01-28T07:26:30;102451.38;;;9.78;82.87
19553;BME280;9420;50.876;7.012;2023-01-28T07:28:57;102447.84;;;9.83;83.02
19553;BME280;9420;50.876;7.012;2023-01-28T07:31:24;102451.38;;;9.99;82.73
19553;BME280;9420;50.876;7.012;2023-01-28T07:33:53;102456.63;;;9.78;84.25
19553;BME280;9420;50.876;7.012;2023-01-28T07:36:20;102458.41;;;10.03;83.23
19553;BME280;9420;50.876;7.012;2023-01-28T07:38:47;102465.38;;;9.77;82.23
19553;BME280;9420;50.876;7.012;2023-01-28T07:41:14;102461.00;;;9.94;81.99
19553;BME280;9420;50.876;7.012;2023-01-28T07:43:41;102461.84;;;9.63;82.57
19553;BME280;9420;50.876;7.012;2023-01-28T07:46:08;102461.88;;;9.84;82.75
19553;BME280;9420;50.876;7.012;2023-01-28T07:48:35;102460.09;;;9.71;81.58
19553;BME280;9420;50.876;7.012;2023-01-28T07:51:04;102461.84;;;9.66;81.42
19553;BME280;9420;50.876;7.012;2023-01-28T07:53:31;102460.09;;;9.71;81.09
19553;BME280;9420;50.876;7.012;2023-01-28T07:55:59;102458.38;;;9.76;81.85
19553;BME280;9420;50.876;7.012;2023-01-28T07:58:27;102454.75;;;9.28;82.49
19553;BME280;9420;50.876;7.012;2023-01-28T08:00:56;102464.50;;;9.69;80.54
19553;BME280;9420;50.876;7.012;2023-01-28T08:03:24;102460.13;;;9.92;78.46
19553;BME280;9420;50.876;7.012;2023-01-28T08:05:54;102468.88;;;9.79;78.03
19553;BME280;9420;50.876;7.012;2023-01-28T08:08:24;102468.91;;;9.82;77.78
19553;BME280;9420;50.876;7.012;2023-01-28T08:10:52;102466.31;;;10.12;77.71
19553;BME280;9420;50.876;7.012;2023-01-28T08:13:20;102468.88;;;9.91;79.49
19553;BME280;9420;50.876;7.012;2023-01-28T08:15:47;102470.66;;;9.89;78.74
19553;BME280;9420;50.876;7.012;2023-01-28T08:18:15;102475.94;;;10.04;78.65
19553;BME280;9420;50.876;7.012;2023-01-28T08:20:43;102478.53;;;9.74;80.59
19553;BME280;9420;50.876;7.012;2023-01-28T08:23:13;102480.31;;;9.84;80.72
19553;BME280;9420;50.876;7.012;2023-01-28T08:25:42;102475.06;;;10.00;79.82
19553;BME280;9420;50.876;7.012;2023-01-28T08:28:10;102485.56;;;10.03;79.02
19553;BME280;9420;50.876;7.012;2023-01-28T08:30:38;102489.94;;;9.85;80.79
19553;BME280;9420;50.876;7.012;2023-01-28T08:33:07;102489.09;;;10.02;78.35
19553;BME280;9420;50.876;7.012;2023-01-28T08:35:34;102498.69;;;9.81;79.15
19553;BME280;9420;50.876;7.012;2023-01-28T08:38:04;102493.41;;;9.66;77.60
19553;BME280;9420;50.876;7.012;2023-01-28T08:40:32;102497.84;;;9.94;77.52
19553;BME280;9420;50.876;7.012;2023-01-28T08:43:02;102497.00;;;9.95;76.87
19553;BME280;9420;50.876;7.012;2023-01-28T08:45:30;102497.84;;;10.00;75.74
19553;BME280;9420;50.876;7.012;2023-01-28T08:48:00;102482.06;;;9.89;76.25
19553;BME280;9420;50.876;7.012;2023-01-28T08:50:30;102489.91;;;9.60;76.34
19553;BME280;9420;50.876;7.012;2023-01-28T08:53:01;102490.81;;;9.81;78.64
19553;BME280;9420;50.876;7.012;2023-01-28T08:55:30;102503.09;;;9.88;75.60
19553;BME280;9420;50.876;7.012;2023-01-28T08:58:03;102502.25;;;9.98;74.78
19553;BME280;9420;50.876;7.012;2023-01-28T09:00:32;102502.25;;;10.04;74.29
19553;BME280;9420;50.876;7.012;2023-01-28T09:03:00;102505.75;;;9.95;73.77
19553;BME280;9420;50.876;7.012;2023-01-28T09:05:27;102504.84;;;9.74;73.18
19553;BME280;9420;50.876;7.012;2023-01-28T09:07:54;102500.50;;;9.97;72.05
19553;BME280;9420;50.876;7.012;2023-01-28T09:10:21;102505.78;;;10.33;70.52
19553;BME280;9420;50.876;7.012;2023-01-28T09:12:48;102509.34;;;10.20;69.12
19553;BME280;9420;50.876;7.012;2023-01-28T09:15:17;102505.81;;;10.27;69.25
19553;BME280;9420;50.876;7.012;2023-01-28T09:17:44;102513.69;;;10.48;69.70
19553;BME280;9420;50.876;7.012;2023-01-28T09:20:12;102517.16;;;10.82;68.45
19553;BME280;9420;50.876;7.012;2023-01-28T09:22:39;102525.09;;;10.50;67.76
19553;BME280;9420;50.876;7.012;2023-01-28T09:25:07;102532.97;;;10.06;69.70
19553;BME280;9420;50.876;7.012;2023-01-28T09:27:35;102539.09;;;10.10;69.08
19553;BME280;9420;50.876;7.012;2023-01-28T09:30:04;102538.28;;;10.38;68.68
19553;BME280;9420;50.876;7.012;2023-01-28T09:32:33;102542.66;;;10.21;67.65
19553;BME280;9420;50.876;7.012;2023-01-28T09:35:00;102552.31;;;10.28;69.05
19553;BME280;9420;50.876;7.012;2023-01-28T09:37:27;102557.59;;;10.42;68.81
19553;BME280;9420;50.876;7.012;2023-01-28T09:39:54;102554.09;;;10.53;67.43
19553;BME280;9420;50.876;7.012;2023-01-28T09:42:41;102554.88;;;10.10;67.99
19553;BME280;9420;50.876;7.012;2023-01-28T09:45:19;102556.69;;;10.29;67.63
19553;BME280;9420;50.876;7.012;2023-01-28T09:47:52;102563.75;;;10.48;67.32
19553;BME280;9420;50.876;7.012;2023-01-28T09:50:30;102563.75;;;10.51;67.30
19553;BME280;9420;50.876;7.012;2023-01-28T09:53:05;102561.09;;;10.66;66.71
19553;BME280;9420;50.876;7.012;2023-01-28T09:55:38;102576.03;;;10.22;67.15
19553;BME280;9420;50.876;7.012;2023-01-28T09:58:11;102570.75;;;10.22;66.99
19553;BME280;9420;50.876;7.012;2023-01-28T10:00:51;102582.78;;;9.53;67.96
19553;BME280;9420;50.876;7.012;2023-01-28T10:03:47;102577.63;;;9.73;68.14
19553;BME280;9420;50.876;7.012;2023-01-28T10:06:25;102583.84;;;10.02;67.67
19553;BME280;9420;50.876;7.012;2023-01-28T10:09:23;102583.00;;;10.14;67.26
19553;BME280;9420;50.876;7.012;2023-01-28T10:12:10;102589.19;;;10.38;66.86
19553;BME280;9420;50.876;7.012;2023-01-28T10:15:09;102583.81;;;9.99;67.90
19553;BME280;9420;50.876;7.012;2023-01-28T10:17:41;102577.66;;;9.96;68.10
19553;BME280;9420;50.876;7.012;2023-01-28T10:20:22;102580.28;;;9.84;67.89
19553;BME280;9420;50.876;7.012;2023-01-28T10:23:00;102572.50;;;10.29;67.10
19553;BME280;9420;50.876;7.012;2023-01-28T10:25:32;102584.81;;;10.42;65.28
19553;BME280;9420;50.876;7.012;2023-01-28T10:28:01;102583.03;;;10.39;64.51
19553;BME280;9420;50.876;7.012;2023-01-28T10:30:32;102579.50;;;10.21;65.92
19553;BME280;9420;50.876;7.012;2023-01-28T10:33:17;102574.97;;;9.70;68.42
19553;BME280;9420;50.876;7.012;2023-01-28T10:35:48;102581.16;;;9.89;67.83
19553;BME280;9420;50.876;7.012;2023-01-28T10:38:21;102588.13;;;9.76;67.17
19553;BME280;9420;50.876;7.012;2023-01-28T10:40:49;102587.34;;;9.98;66.28
19553;BME280;9420;50.876;7.012;2023-01-28T10:43:20;102588.16;;;9.81;67.15
19553;BME280;9420;50.876;7.012;2023-01-28T10:45:56;102589.06;;;9.99;67.00
19553;BME280;9420;50.876;7.012;2023-01-28T10:48:28;102575.94;;;9.95;66.57
19553;BME280;9420;50.876;7.012;2023-01-28T10:50:59;102582.91;;;9.84;66.41
19553;BME280;9420;50.876;7.012;2023-01-28T10:53:34;102590.81;;;9.97;66.59
19553;BME280;9420;50.876;7.012;2023-01-28T10:56:05;102568.94;;;10.09;66.88
19553;BME280;9420;50.876;7.012;2023-01-28T10:58:45;102571.56;;;9.97;66.07
19553;BME280;9420;50.876;7.012;2023-01-28T11:01:12;102581.19;;;9.95;65.79
19553;BME280;9420;50.876;7.012;2023-01-28T11:03:53;102574.25;;;10.33;65.69
19553;BME280;9420;50.876;7.012;2023-01-28T11:06:28;102572.50;;;10.50;65.33
19553;BME280;9420;50.876;7.012;2023-01-28T11:08:56;102577.75;;;10.35;64.95
19553;BME280;9420;50.876;7.012;2023-01-28T11:11:25;102574.25;;;10.25;66.11
19553;BME280;9420;50.876;7.012;2023-01-28T11:13:53;102567.25;;;10.65;64.68
19553;BME280;9420;50.876;7.012;2023-01-28T11:16:24;102575.16;;;10.61;64.59
19553;BME280;9420;50.876;7.012;2023-01-28T11:18:56;102576.03;;;10.40;65.37
19553;BME280;9420;50.876;7.012;2023-01-28T11:21:30;102577.75;;;10.35;65.01
19553;BME280;9420;50.876;7.012;2023-01-28T11:24:02;102567.25;;;10.50;62.75
19553;BME280;9420;50.876;7.012;2023-01-28T11:26:34;102572.50;;;10.35;63.69
19553;BME280;9420;50.876;7.012;2023-01-28T11:29:04;102574.28;;;10.30;65.03
19553;BME280;9420;50.876;7.012;2023-01-28T11:31:41;102573.38;;;10.37;64.91
19553;BME280;9420;50.876;7.012;2023-01-28T11:34:15;102558.47;;;10.63;64.99
19553;BME280;9420;50.876;7.012;2023-01-28T11:36:52;102560.22;;;10.52;64.05
19553;BME280;9420;50.876;7.012;2023-01-28T11:39:22;102565.47;;;10.19;64.79
19553;BME280;9420;50.876;7.012;2023-01-28T11:41:52;102569.00;;;10.24;65.89
19553;BME280;9420;50.876;7.012;2023-01-28T11:44:22;102569.00;;;10.57;62.72
19553;BME280;9420;50.876;7.012;2023-01-28T11:47:09;102565.50;;;10.55;62.93
19553;BME280;9420;50.876;7.012;2023-01-28T11:49:56;102569.03;;;10.45;63.91
19553;BME280;9420;50.876;7.012;2023-01-28T11:52:46;102576.91;;;10.54;64.28
19553;BME280;9420;50.876;7.012;2023-01-28T11:55:36;102579.50;;;10.27;64.81
19553;BME280;9420;50.876;7.012;2023-01-28T11:58:20;102574.25;;;10.21;65.04
19553;BME280;9420;50.876;7.012;2023-01-28T12:01:00;102571.63;;;10.39;62.69
19553;BME280;9420;50.876;7.012;2023-01-28T12:03:54;102569.00;;;10.42;64.08
19553;BME280;9420;50.876;7.012;2023-01-28T12:06:49;102565.47;;;10.31;63.47
19553;BME280;9420;50.876;7.012;2023-01-28T12:09:30;102555.81;;;10.75;62.46
19553;BME280;9420;50.876;7.012;2023-01-28T12:12:18;102557.59;;;10.48;62.96
19553;BME280;9420;50.876;7.012;2023-01-28T12:15:19;102568.13;;;10.22;63.04
19553;BME280;9420;50.876;7.012;2023-01-28T12:18:09;102563.75;;;10.48;64.03
19553;BME280;9420;50.876;7.012;2023-01-28T12:20:51;102551.44;;;10.41;63.45
19553;BME280;9420;50.876;7.012;2023-01-28T12:23:42;102554.09;;;10.36;64.16
19553;BME280;9420;50.876;7.012;2023-01-28T12:26:27;102547.94;;;10.36;64.46
19553;BME280;9420;50.876;7.012;2023-01-28T12:29:16;102549.69;;;10.46;65.24
19553;BME280;9420;50.876;7.012;2023-01-28T12:32:07;102551.41;;;10.68;64.47
19553;BME280;9420;50.876;7.012;2023-01-28T12:35:16;102544.41;;;10.43;63.63
19553;BME280;9420;50.876;7.012;2023-01-28T12:37:59;102546.16;;;10.52;66.01
19553;BME280;9420;50.876;7.012;2023-01-28T12:40:57;102553.13;;;10.03;65.00
19553;BME280;9420;50.876;7.012;2023-01-28T12:43:43;102538.19;;;9.97;64.30
19553;BME280;9420;50.876;7.012;2023-01-28T12:46:25;102545.25;;;10.07;64.08
19553;BME280;9420;50.876;7.012;2023-01-28T12:49:02;102551.44;;;10.23;64.06
19553;BME280;9420;50.876;7.012;2023-01-28T12:51:45;102550.56;;;10.31;64.58
19553;BME280;9420;50.876;7.012;2023-01-28T12:54:20;102547.94;;;10.69;63.88
19553;BME280;9420;50.876;7.012;2023-01-28T12:56:52;102546.97;;;10.04;64.17
19553;BME280;9420;50.876;7.012;2023-01-28T12:59:28;102547.94;;;10.24;61.67
19553;BME280;9420;50.876;7.012;2023-01-28T13:02:16;102547.06;;;10.17;62.25
19553;BME280;9420;50.876;7.012;2023-01-28T13:04:55;102551.38;;;10.08;62.67
19553;BME280;9420;50.876;7.012;2023-01-28T13:07:32;102535.66;;;10.44;62.91
19553;BME280;9420;50.876;7.012;2023-01-28T13:10:08;102528.59;;;10.26;63.38
19553;BME280;9420;50.876;7.012;2023-01-28T13:12:39;102519.84;;;10.35;64.12
19553;BME280;9420;50.876;7.012;2023-01-28T13:15:15;102519.84;;;10.47;63.14
19553;BME280;9420;50.876;7.012;2023-01-28T13:17:57;102508.34;;;10.87;61.16
19553;BME280;9420;50.876;7.012;2023-01-28T13:20:37;102507.53;;;10.67;60.39
19553;BME280;9420;50.876;7.012;2023-01-28T13:23:22;102503.97;;;10.92;59.86
19553;BME280;9420;50.876;7.012;2023-01-28T13:25:52;102504.00;;;10.86;61.20
19553;BME280;9420;50.876;7.012;2023-01-28T13:28:29;102502.22;;;10.97;59.80
19553;BME280;9420;50.876;7.012;2023-01-28T13:31:07;102509.25;;;10.86;60.50
19553;BME280;9420;50.876;7.012;2023-01-28T13:33:40;102497.72;;;11.14;59.05